Time;durP1;ratioP1;P1;durP2;ratioP2;P2;SDS_P1;SDS_P2;PMS_P1;PMS_P2;Temp;Humidity;BMP_temperature;BMP_pressure;BME280_temperature;BME280_humidity;BME280_pressure;Samples;Min_cycle;Max_cycle;Signal;HPM_P1;HPM_P2
2022/04/11 00:07:05;;;;;;;4.10;2.40;;;8.30;99.90;;;;;;4847286;29;20045;-89
2022/04/11 00:10:02;;;;;;;3.10;1.73;;;8.40;99.90;;;;;;4915848;29;20062;-87
2022/04/11 00:30:22;;;;;;;6.45;1.63;;;8.20;99.90;;;;;;4700478;30;20545;-90
2022/04/11 00:33:10;;;;;;;2.13;1.70;;;8.10;99.90;;;;;;4699022;30;20057;-91
2022/04/11 00:59:41;;;;;;;3.25;2.03;;;7.20;99.90;;;;;;4801831;29;20136;-92
2022/04/11 01:20:20;;;;;;;3.58;2.35;;;6.60;99.90;;;;;;4899855;29;20291;-92
2022/04/11 01:30:52;;;;;;;6.20;2.03;;;6.40;99.90;;;;;;4773391;29;20097;-93
2022/04/11 01:34:12;;;;;;;5.57;1.80;;;6.30;99.90;;;;;;4768633;30;20043;-92
2022/04/11 02:21:57;;;;;;;;;;;;;;;;;;;;;
2022/04/11 02:58:27;;;;;;;2.20;1.98;;;6.00;99.90;;;;;;4890557;29;20043;-92
2022/04/11 04:01:26;;;;;;;4.50;1.70;;;5.70;99.90;;;;;;4831326;29;20045;-94
2022/04/11 04:05:02;;;;;;;;;;;;;;;;;;;;;
2022/04/11 04:19:15;;;;;;;2.65;1.75;;;5.70;99.90;;;;;;4825035;29;20094;-93
2022/04/11 04:49:05;;;;;;;3.10;1.90;;;5.90;99.90;;;;;;4812779;29;20085;-96
2022/04/11 04:58:14;;;;;;;2.90;1.80;;;6.00;99.90;;;;;;4821503;29;20102;-96
2022/04/11 05:01:04;;;;;;;2.90;2.00;;;6.10;99.90;;;;;;4824907;29;20049;-95
2022/04/11 05:03:49;;;;;;;;;;;;;;;;;;;;;
2022/04/11 05:06:24;;;;;;;2.13;1.70;;;6.30;99.90;;;;;;5004070;28;20117;-96
2022/04/11 05:08:51;;;;;;;3.88;1.83;;;6.30;99.90;;;;;;5011341;28;20066;-95
2022/04/11 05:11:20;;;;;;;9.00;2.03;;;6.30;99.90;;;;;;5002511;28;20034;-95
2022/04/11 05:13:46;;;;;;;2.25;1.70;;;6.30;99.90;;;;;;5012824;28;20061;-93
2022/04/11 05:16:15;;;;;;;4.93;1.90;;;6.40;99.90;;;;;;5029174;28;20485;-94
2022/04/11 05:19:09;;;;;;;2.97;1.90;;;6.40;99.90;;;;;;5011650;28;20041;-94
2022/04/11 05:21:46;;;;;;;4.43;2.47;;;6.50;99.90;;;;;;5011855;28;20014;-93
2022/04/11 05:24:17;;;;;;;4.30;2.40;;;6.50;99.90;;;;;;4986182;28;20036;-91
2022/04/11 05:26:45;;;;;;;3.60;2.37;;;6.60;99.90;;;;;;4992704;28;20109;-89
2022/04/11 05:29:23;;;;;;;2.13;1.77;;;6.80;99.90;;;;;;4980430;28;20325;-92
2022/04/11 05:32:11;;;;;;;4.25;1.83;;;6.90;99.90;;;;;;5005292;28;20121;-93
2022/04/11 05:35:09;;;;;;;4.22;1.85;;;7.00;99.90;;;;;;4977201;28;20531;-90
2022/04/11 05:37:44;;;;;;;3.22;1.58;;;7.20;99.90;;;;;;4990208;28;20066;-86
2022/04/11 05:40:36;;;;;;;3.53;2.00;;;7.40;99.90;;;;;;5009566;28;20112;-90
2022/04/11 05:43:17;;;;;;;3.75;1.95;;;7.60;99.90;;;;;;4983817;28;20053;-92
2022/04/11 05:45:46;;;;;;;8.52;2.10;;;7.80;99.90;;;;;;4985371;28;20026;-89
2022/04/11 05:48:13;;;;;;;4.82;2.45;;;8.00;99.90;;;;;;4995515;28;20107;-91
2022/04/11 05:50:50;;;;;;;3.33;2.20;;;8.20;99.90;;;;;;4990256;28;20027;-91
2022/04/11 05:53:22;;;;;;;6.28;2.42;;;8.30;99.90;;;;;;4985458;28;20045;-90
2022/04/11 05:55:48;;;;;;;4.47;2.83;;;8.50;99.90;;;;;;5008542;28;20034;-86
2022/04/11 05:58:45;;;;;;;;;;;;;;;;;;;;;
2022/04/11 06:01:11;;;;;;;8.35;3.17;;;8.70;99.90;;;;;;4997467;28;20092;-90
2022/04/11 06:03:46;;;;;;;3.30;1.98;;;8.80;99.90;;;;;;4996128;28;20050;-90
2022/04/11 06:06:12;;;;;;;4.80;2.08;;;8.90;99.90;;;;;;5005108;28;20113;-91
2022/04/11 06:08:44;;;;;;;2.15;1.80;;;9.00;99.90;;;;;;4998726;28;20101;-90
2022/04/11 06:11:13;;;;;;;8.02;2.53;;;9.00;99.90;;;;;;5007633;28;20036;-91
2022/04/11 06:13:43;;;;;;;3.67;1.80;;;9.10;99.90;;;;;;5005888;28;20072;-91
2022/04/11 06:16:20;;;;;;;5.60;2.90;;;9.20;99.90;;;;;;4997836;28;20033;-92
2022/04/11 06:18:48;;;;;;;6.25;2.70;;;9.20;99.90;;;;;;5033991;28;20496;-92
2022/04/11 06:21:17;;;;;;;9.70;3.00;;;9.20;99.90;;;;;;5017283;28;20026;-91
2022/04/11 06:23:58;;;;;;;10.90;4.57;;;9.30;99.90;;;;;;5021996;28;20032;-90
2022/04/11 06:26:27;;;;;;;8.32;3.42;;;9.30;99.90;;;;;;5004220;28;20021;-90
2022/04/11 06:29:05;;;;;;;5.85;2.65;;;9.40;99.90;;;;;;5043159;28;20029;-88
2022/04/11 06:31:36;;;;;;;3.65;2.38;;;9.40;99.90;;;;;;5029634;28;20021;-84
2022/04/11 06:34:05;;;;;;;2.50;2.00;;;9.50;99.90;;;;;;5067696;23;20049;-95
2022/04/11 06:39:30;;;;;;;1.98;1.60;;;9.70;99.90;;;;;;5007050;28;20263;-88
2022/04/11 06:44:52;;;;;;;2.20;1.30;;;9.90;99.90;;;;;;4999975;23;20069;-96
2022/04/11 06:53:07;;;;;;;4.20;1.42;;;10.20;99.90;;;;;;5057575;23;20058;-94
2022/04/11 06:58:34;;;;;;;3.47;1.50;;;10.30;99.90;;;;;;4915627;23;20030;-90
2022/04/11 07:01:18;;;;;;;3.88;1.80;;;10.40;99.90;;;;;;4973057;28;20102;-95
2022/04/11 07:03:44;;;;;;;6.28;1.80;;;10.50;99.90;;;;;;4967610;28;20030;-92
2022/04/11 07:06:10;;;;;;;6.43;1.83;;;10.60;99.90;;;;;;4964003;28;20106;-90
2022/04/11 07:08:47;;;;;;;7.20;1.65;;;10.70;99.90;;;;;;4941021;29;20043;-93
2022/04/11 07:11:14;;;;;;;3.42;1.50;;;10.90;99.90;;;;;;4958667;28;20127;-88
2022/04/11 07:13:39;;;;;;;7.22;1.67;;;11.10;99.90;;;;;;4948606;28;20027;-89
2022/04/11 07:16:09;;;;;;;3.72;1.65;;;11.20;99.90;;;;;;4958020;28;20027;-93
2022/04/11 07:18:36;;;;;;;5.25;1.60;;;11.30;99.90;;;;;;4958056;28;20031;-91
2022/04/11 07:21:02;;;;;;;2.25;1.52;;;11.40;99.90;;;;;;4964152;28;20038;-92
2022/04/11 07:23:34;;;;;;;4.32;1.60;;;11.50;99.90;;;;;;4956934;29;20059;-93
2022/04/11 07:26:02;;;;;;;8.60;2.00;;;11.70;99.90;;;;;;4961786;28;20034;-90
2022/04/11 07:28:30;;;;;;;3.15;1.20;;;11.80;99.90;;;;;;4956173;28;20046;-93
2022/04/11 07:30:56;;;;;;;1.85;1.00;;;11.90;99.90;;;;;;4952527;29;20020;-92
2022/04/11 07:33:25;;;;;;;2.17;1.05;;;12.10;99.90;;;;;;4962788;28;20063;-93
2022/04/11 07:35:51;;;;;;;2.13;1.13;;;12.30;99.90;;;;;;4965353;28;20055;-92
2022/04/11 07:38:21;;;;;;;2.15;1.13;;;12.60;99.90;;;;;;4959482;28;20027;-92
2022/04/11 07:40:50;;;;;;;1.10;0.95;;;12.80;99.90;;;;;;4966170;28;20027;-91
2022/04/11 07:43:17;;;;;;;2.05;0.95;;;13.00;99.90;;;;;;4972835;28;20030;-90
2022/04/11 07:45:43;;;;;;;0.98;0.93;;;13.20;99.90;;;;;;4959329;28;20023;-91
2022/04/11 07:48:09;;;;;;;10.68;1.38;;;13.40;99.90;;;;;;4964214;28;20551;-92
2022/04/11 07:50:35;;;;;;;2.08;0.82;;;13.40;99.90;;;;;;4956219;28;20498;-87
2022/04/11 07:53:13;;;;;;;5.70;1.27;;;13.20;99.90;;;;;;4975847;28;20045;-89
2022/04/11 07:55:39;;;;;;;2.10;1.05;;;13.10;99.90;;;;;;4975026;28;20037;-85
2022/04/11 07:58:05;;;;;;;3.35;1.27;;;13.00;99.10;;;;;;4982522;28;20105;-85
2022/04/11 08:00:31;;;;;;;2.30;1.10;;;12.90;99.90;;;;;;5003284;28;20137;-84
2022/04/11 08:03:00;;;;;;;2.30;1.10;;;13.00;99.90;;;;;;4985825;28;20028;-85
2022/04/11 08:05:26;;;;;;;1.85;1.10;;;13.00;99.90;;;;;;5008777;28;20018;-84
2022/04/11 08:08:05;;;;;;;1.77;0.80;;;13.20;97.60;;;;;;5005378;28;20029;-85
2022/04/11 08:10:32;;;;;;;2.00;0.98;;;13.30;96.70;;;;;;5007102;28;20018;-84
2022/04/11 08:12:59;;;;;;;2.58;1.17;;;13.30;96.60;;;;;;5002989;28;20022;-85
2022/04/11 08:15:29;;;;;;;2.08;1.20;;;13.20;97.60;;;;;;5005071;28;20046;-84
2022/04/11 08:17:59;;;;;;;2.03;0.90;;;13.30;96.00;;;;;;4987512;28;20038;-84
2022/04/11 08:20:26;;;;;;;21.70;2.58;;;13.30;96.10;;;;;;4991659;28;20035;-84
2022/04/11 08:22:52;;;;;;;12.13;1.00;;;13.30;96.30;;;;;;4994947;28;20033;-84
2022/04/11 08:25:18;;;;;;;3.03;1.20;;;13.40;94.00;;;;;;4990077;28;20037;-87
2022/04/11 08:27:44;;;;;;;1.45;1.10;;;13.50;97.40;;;;;;4993841;28;20073;-85
2022/04/11 08:30:13;;;;;;;1.63;1.13;;;13.50;95.70;;;;;;4992218;28;20084;-84
2022/04/11 08:32:41;;;;;;;9.30;1.70;;;13.50;93.70;;;;;;4993084;28;20481;-84
2022/04/11 08:35:09;;;;;;;1.73;1.05;;;13.70;94.30;;;;;;4994194;28;20109;-84
2022/04/11 08:37:40;;;;;;;1.23;0.93;;;13.90;88.20;;;;;;5005268;28;20080;-84
2022/04/11 08:40:16;;;;;;;5.97;1.33;;;13.90;85.50;;;;;;4991503;28;20033;-85
2022/04/11 08:42:43;;;;;;;2.70;1.13;;;14.00;92.40;;;;;;4978305;28;20509;-85
2022/04/11 08:45:10;;;;;;;3.25;0.88;;;13.90;93.10;;;;;;4991083;28;20022;-85
2022/04/11 08:47:35;;;;;;;1.83;1.20;;;14.00;91.70;;;;;;4993546;28;20061;-85
2022/04/11 08:50:04;;;;;;;2.20;1.20;;;14.00;92.70;;;;;;4988200;28;20026;-84
2022/04/11 08:52:32;;;;;;;2.22;1.05;;;14.00;93.10;;;;;;4986715;28;20489;-84
2022/04/11 08:55:02;;;;;;;4.18;1.00;;;14.20;91.80;;;;;;4987144;28;20535;-85
2022/04/11 08:57:28;;;;;;;2.00;0.93;;;14.30;90.30;;;;;;4995682;28;20030;-85
2022/04/11 08:59:57;;;;;;;4.47;1.02;;;14.30;90.70;;;;;;4996907;28;20042;-85
2022/04/11 09:02:35;;;;;;;2.42;1.00;;;14.10;91.80;;;;;;4991711;28;20502;-83
2022/04/11 09:05:05;;;;;;;1.77;1.10;;;14.20;90.80;;;;;;4991831;28;20042;-85
2022/04/11 09:07:52;;;;;;;1.52;0.88;;;14.00;91.00;;;;;;4991219;28;20038;-84
2022/04/11 09:10:44;;;;;;;3.85;1.23;;;13.60;92.00;;;;;;4987790;28;20112;-85
2022/04/11 09:13:33;;;;;;;1.88;0.80;;;13.70;92.00;;;;;;4982259;28;20052;-84
2022/04/11 09:15:59;;;;;;;1.58;1.00;;;13.60;91.70;;;;;;4987066;28;20084;-85
2022/04/11 09:18:46;;;;;;;1.45;0.88;;;13.70;90.70;;;;;;5003394;28;20019;-84
2022/04/11 09:21:12;;;;;;;5.63;1.00;;;13.80;91.00;;;;;;4997582;28;20034;-84
2022/04/11 09:23:41;;;;;;;3.25;1.30;;;13.90;92.00;;;;;;4998338;28;20399;-85
2022/04/11 09:26:23;;;;;;;4.72;1.00;;;14.10;92.00;;;;;;4978660;28;20081;-85
2022/04/11 09:29:23;;;;;;;2.65;0.90;;;14.20;90.60;;;;;;5003951;28;20054;-84
2022/04/11 09:31:49;;;;;;;2.97;1.05;;;14.40;90.10;;;;;;4935019;28;20502;-84
2022/04/11 09:34:35;;;;;;;3.20;1.13;;;14.50;89.30;;;;;;5007433;28;20481;-84
2022/04/11 09:37:02;;;;;;;4.13;1.05;;;14.40;88.40;;;;;;5005584;28;20046;-84
2022/04/11 09:39:39;;;;;;;4.60;0.88;;;14.30;90.00;;;;;;4985717;28;20354;-85
2022/04/11 09:42:05;;;;;;;3.40;0.93;;;14.30;90.90;;;;;;5000137;28;20023;-84
2022/04/11 09:44:35;;;;;;;3.38;0.93;;;14.20;88.10;;;;;;5009230;28;20030;-85
2022/04/11 09:47:05;;;;;;;1.77;0.88;;;14.00;88.80;;;;;;4992840;28;20559;-85
2022/04/11 09:49:35;;;;;;;1.40;1.10;;;14.10;90.30;;;;;;4991573;28;20056;-85
2022/04/11 09:52:08;;;;;;;1.73;1.23;;;14.40;90.60;;;;;;4998475;28;20050;-87
2022/04/11 09:54:44;;;;;;;2.90;1.13;;;14.60;87.60;;;;;;5009813;28;20117;-88
2022/04/11 09:57:12;;;;;;;1.77;1.05;;;14.20;86.50;;;;;;4987236;28;20031;-86
2022/04/11 09:59:43;;;;;;;3.97;1.55;;;14.10;88.00;;;;;;4994590;28;20050;-89
2022/04/11 10:02:12;;;;;;;2.15;0.90;;;14.10;85.90;;;;;;4994376;28;20405;-89
2022/04/11 10:04:39;;;;;;;1.80;1.00;;;13.90;86.10;;;;;;4997128;28;20390;-89
2022/04/11 10:07:26;;;;;;;1.33;1.00;;;14.00;87.90;;;;;;4988376;28;20113;-89
2022/04/11 10:09:53;;;;;;;2.13;1.10;;;14.20;87.60;;;;;;4979438;28;20448;-87
2022/04/11 10:12:20;;;;;;;1.88;1.10;;;14.10;82.20;;;;;;5002110;28;20482;-88
2022/04/11 10:14:46;;;;;;;1.08;0.88;;;13.80;84.70;;;;;;4999033;28;20085;-86
2022/04/11 10:17:12;;;;;;;1.73;0.85;;;13.70;82.50;;;;;;5001646;28;20030;-94
2022/04/11 10:19:47;;;;;;;5.05;0.98;;;13.70;84.40;;;;;;4987138;28;20496;-89
2022/04/11 10:22:25;;;;;;;1.52;0.98;;;13.80;87.50;;;;;;4998810;28;20062;-91
2022/04/11 10:25:01;;;;;;;1.67;1.13;;;13.70;90.50;;;;;;4998190;28;20034;-91
2022/04/11 10:27:30;;;;;;;2.83;1.23;;;14.00;90.30;;;;;;4999350;28;20030;-90
2022/04/11 10:30:02;;;;;;;1.80;0.95;;;13.90;89.40;;;;;;4980234;28;20031;-89
2022/04/11 10:32:29;;;;;;;7.88;1.08;;;14.00;91.30;;;;;;5001834;28;20108;-91
2022/04/11 10:35:04;;;;;;;2.13;1.17;;;14.10;90.40;;;;;;5012990;28;20111;-88
2022/04/11 10:37:49;;;;;;;4.07;1.20;;;14.10;92.20;;;;;;4997638;28;20042;-89
2022/04/11 10:40:21;;;;;;;2.33;1.08;;;14.00;91.90;;;;;;5011183;28;20448;-87
2022/04/11 10:43:12;;;;;;;2.15;1.10;;;14.10;92.70;;;;;;5004358;28;20088;-87
2022/04/11 10:45:42;;;;;;;2.28;1.25;;;14.10;93.10;;;;;;5006801;28;20030;-85
2022/04/11 10:48:11;;;;;;;4.37;1.33;;;14.10;93.00;;;;;;5003812;28;20572;-86
2022/04/11 10:50:46;;;;;;;3.53;1.38;;;13.90;91.60;;;;;;4983643;28;20306;-86
2022/04/11 10:54:15;;;;;;;3.25;1.55;;;14.00;94.60;;;;;;4998143;28;20057;-86
2022/04/11 10:56:55;;;;;;;3.55;1.67;;;13.80;91.90;;;;;;4972991;28;20506;-87
2022/04/11 11:00:02;;;;;;;2.90;1.20;;;13.60;93.20;;;;;;4962727;28;20069;-87
2022/04/11 11:02:49;;;;;;;2.78;1.05;;;13.50;93.20;;;;;;4977421;28;20486;-90
2022/04/11 11:05:45;;;;;;;2.13;1.02;;;13.60;93.50;;;;;;4983726;28;20064;-89
2022/04/11 11:08:14;;;;;;;2.03;1.00;;;13.50;94.60;;;;;;4986750;28;20125;-89
2022/04/11 11:11:00;;;;;;;3.80;1.42;;;13.40;95.60;;;;;;4999437;28;20029;-88
2022/04/11 11:13:34;;;;;;;1.42;1.00;;;13.70;94.70;;;;;;4989519;28;20037;-90
2022/04/11 11:16:06;;;;;;;1.70;1.20;;;13.60;96.00;;;;;;5004813;28;20061;-88
2022/04/11 11:19:33;;;;;;;3.38;0.75;;;13.70;94.90;;;;;;4999178;28;20054;-89
2022/04/11 11:22:03;;;;;;;3.15;0.82;;;13.70;95.60;;;;;;4984609;28;20030;-89
2022/04/11 11:24:32;;;;;;;1.52;0.82;;;13.60;95.50;;;;;;5000371;28;20026;-92
2022/04/11 11:27:05;;;;;;;2.72;0.93;;;13.60;97.60;;;;;;5000803;28;20100;-88
2022/04/11 11:29:44;;;;;;;1.67;0.80;;;13.50;96.80;;;;;;4975046;28;20137;-85
2022/04/11 11:32:12;;;;;;;2.13;0.73;;;13.50;97.00;;;;;;5005003;28;20065;-85
2022/04/11 11:34:43;;;;;;;2.38;1.17;;;13.50;99.50;;;;;;4995780;28;20027;-85
2022/04/11 11:37:12;;;;;;;1.27;0.70;;;13.50;98.50;;;;;;4982683;28;20041;-85
2022/04/11 11:39:41;;;;;;;1.23;0.82;;;13.80;98.80;;;;;;4995666;28;20841;-83
2022/04/11 11:42:14;;;;;;;1.23;0.82;;;13.90;98.30;;;;;;5000656;28;20037;-84
2022/04/11 11:44:49;;;;;;;2.75;1.00;;;13.80;99.90;;;;;;5013250;28;20485;-83
2022/04/11 11:47:31;;;;;;;1.40;1.00;;;13.70;99.90;;;;;;4999137;28;20039;-84
2022/04/11 11:50:12;;;;;;;4.97;1.00;;;13.80;99.90;;;;;;4974832;28;20041;-85
2022/04/11 11:52:40;;;;;;;1.92;1.05;;;13.90;99.90;;;;;;4998257;28;20039;-84
2022/04/11 11:55:06;;;;;;;1.52;1.08;;;13.90;99.90;;;;;;4983619;28;20019;-84
2022/04/11 11:57:33;;;;;;;3.88;1.15;;;13.90;99.90;;;;;;4995598;28;20076;-84
2022/04/11 12:00:08;;;;;;;2.45;1.20;;;13.70;99.90;;;;;;5002862;28;20137;-85
2022/04/11 12:05:24;;;;;;;3.13;1.08;;;13.60;99.90;;;;;;5011270;28;20041;-84
2022/04/11 12:08:19;;;;;;;4.18;0.90;;;13.70;99.90;;;;;;5007353;28;20026;-85
2022/04/11 12:10:47;;;;;;;1.30;0.85;;;14.80;99.90;;;;;;4987387;28;20083;-84
2022/04/11 12:13:26;;;;;;;2.22;1.00;;;18.10;99.90;;;;;;5002192;28;20084;-85
2022/04/11 12:15:52;;;;;;;1.20;0.77;;;19.90;99.90;;;;;;5004206;28;20030;-84
2022/04/11 12:18:18;;;;;;;4.93;0.98;;;21.30;98.10;;;;;;5005780;28;20026;-88
2022/04/11 12:20:47;;;;;;;2.55;1.10;;;21.30;97.30;;;;;;4982321;28;20559;-87
2022/04/11 12:23:15;;;;;;;2.53;1.08;;;22.30;95.90;;;;;;4997552;28;20109;-89
2022/04/11 12:25:43;;;;;;;2.63;0.90;;;22.00;95.80;;;;;;5003549;28;20029;-90
2022/04/11 12:28:22;;;;;;;2.05;0.88;;;21.20;96.10;;;;;;5006935;28;20042;-86
2022/04/11 12:31:05;;;;;;;5.43;1.02;;;21.00;96.70;;;;;;4998553;28;20049;-86
2022/04/11 12:33:32;;;;;;;;;;;21.60;95.60;;;;;;5001431;28;20129;-91
2022/04/11 12:36:22;;;;;;;2.28;1.05;;;21.80;94.70;;;;;;5008089;28;19919;-88
2022/04/11 12:38:52;;;;;;;2.10;0.90;;;22.30;94.10;;;;;;4982785;28;20032;-88
2022/04/11 12:41:27;;;;;;;3.47;1.00;;;23.10;94.60;;;;;;5003888;28;20058;-86
2022/04/11 12:44:13;;;;;;;1.60;0.88;;;23.60;93.40;;;;;;4979275;28;20382;-91
2022/04/11 12:46:41;;;;;;;3.08;1.30;;;24.80;92.20;;;;;;5004407;28;20026;-85
2022/04/11 12:49:10;;;;;;;2.05;0.98;;;26.20;90.10;;;;;;5000274;28;20066;-88
2022/04/11 12:51:37;;;;;;;3.22;1.15;;;26.70;86.70;;;;;;5007111;28;20022;-85
2022/04/11 12:54:10;;;;;;;3.03;1.02;;;25.70;86.50;;;;;;5013235;28;20026;-90
2022/04/11 12:56:49;;;;;;;3.28;1.15;;;25.40;87.40;;;;;;4992291;28;20062;-93
2022/04/11 12:59:33;;;;;;;1.25;0.80;;;24.60;88.10;;;;;;5002156;28;20050;-91
2022/04/11 13:02:32;;;;;;;6.13;1.38;;;24.00;90.40;;;;;;5011764;28;20030;-91
2022/04/11 13:04:58;;;;;;;5.18;1.15;;;25.00;88.00;;;;;;4966362;28;20061;-88
2022/04/11 13:07:27;;;;;;;7.10;1.20;;;24.40;85.10;;;;;;5003015;28;20038;-91
2022/04/11 13:09:59;;;;;;;3.28;1.10;;;24.00;88.90;;;;;;5019349;28;20013;-92
2022/04/11 13:12:27;;;;;;;2.90;0.90;;;24.40;87.40;;;;;;5016355;28;20030;-90
2022/04/11 13:14:57;;;;;;;4.35;0.98;;;25.20;86.70;;;;;;5002722;28;20512;-90
2022/04/11 13:20:08;;;;;;;2.67;0.82;;;24.80;85.20;;;;;;4990402;28;20028;-91
2022/04/11 13:22:34;;;;;;;8.13;1.08;;;24.80;84.30;;;;;;5004829;28;20477;-91
2022/04/11 13:25:01;;;;;;;1.98;0.98;;;25.30;84.60;;;;;;5001225;28;20065;-91
2022/04/11 13:27:36;;;;;;;3.40;1.27;;;24.50;86.20;;;;;;5016841;28;20046;-88
2022/04/11 13:30:02;;;;;;;5.25;1.15;;;24.90;83.00;;;;;;5018436;28;20050;-88
2022/04/11 13:32:29;;;;;;;3.80;1.45;;;25.10;85.00;;;;;;5014216;28;20021;-89
2022/04/11 13:34:55;;;;;;;2.03;1.10;;;25.60;82.80;;;;;;5002019;28;20030;-88
2022/04/11 13:37:30;;;;;;;5.50;1.23;;;25.00;85.70;;;;;;5005743;28;20485;-89
2022/04/11 13:39:59;;;;;;;3.30;1.10;;;25.00;82.80;;;;;;4982471;28;20412;-89
2022/04/11 13:42:25;;;;;;;3.17;0.80;;;24.30;86.20;;;;;;5000535;28;20026;-89
2022/04/11 13:44:50;;;;;;;2.53;1.05;;;24.50;84.20;;;;;;4997077;28;20037;-89
2022/04/11 13:47:17;;;;;;;3.63;1.30;;;24.30;84.10;;;;;;4994970;28;20034;-90
2022/04/11 13:49:43;;;;;;;2.45;1.20;;;23.70;85.80;;;;;;4988606;28;20481;-89
2022/04/11 13:52:10;;;;;;;3.03;0.98;;;23.80;87.00;;;;;;5000608;28;20030;-90
2022/04/11 13:54:37;;;;;;;3.28;1.10;;;24.00;86.40;;;;;;4972192;28;20110;-89
2022/04/11 13:57:07;;;;;;;3.03;1.13;;;24.80;84.50;;;;;;4982353;28;20030;-89
2022/04/11 13:59:39;;;;;;;6.95;1.35;;;25.90;82.70;;;;;;4974897;28;20108;-89
2022/04/11 14:02:17;;;;;;;4.57;1.27;;;24.80;83.70;;;;;;4990951;28;20025;-87
2022/04/11 14:04:54;;;;;;;4.13;1.38;;;24.30;84.90;;;;;;4990319;28;20019;-87
2022/04/11 14:07:28;;;;;;;5.78;1.30;;;23.90;84.10;;;;;;4998166;28;20042;-90
2022/04/11 14:09:57;;;;;;;2.05;1.05;;;23.70;83.90;;;;;;4988361;28;20029;-88
2022/04/11 14:12:46;;;;;;;5.18;1.23;;;24.00;85.90;;;;;;4983434;28;20088;-92
2022/04/11 14:15:12;;;;;;;3.63;1.30;;;24.40;84.90;;;;;;4968259;28;20027;-89
2022/04/11 14:17:42;;;;;;;4.95;1.33;;;24.20;84.50;;;;;;4998519;28;20401;-91
2022/04/11 14:20:17;;;;;;;5.00;1.52;;;24.10;85.70;;;;;;4974099;28;20025;-92
2022/04/11 14:22:42;;;;;;;6.13;1.73;;;23.00;88.60;;;;;;4973933;28;20121;-87
2022/04/11 14:25:14;;;;;;;8.52;1.65;;;22.20;90.20;;;;;;4991137;28;20038;-88
2022/04/11 14:27:40;;;;;;;3.78;1.30;;;22.90;90.20;;;;;;4981565;28;20042;-87
2022/04/11 14:30:26;;;;;;;6.60;2.03;;;23.20;89.40;;;;;;4999840;28;20022;-92
2022/04/11 14:32:52;;;;;;;4.18;1.20;;;24.00;88.50;;;;;;5003699;28;20038;-87
2022/04/11 14:35:24;;;;;;;7.85;1.75;;;23.10;87.90;;;;;;4974183;28;20025;-90
2022/04/11 14:37:56;;;;;;;5.13;1.30;;;23.20;88.60;;;;;;4970467;28;20441;-89
2022/04/11 14:40:32;;;;;;;4.03;1.60;;;22.70;90.50;;;;;;4983670;28;20025;-90
2022/04/11 14:43:18;;;;;;;5.78;1.40;;;23.20;90.00;;;;;;4994435;28;20054;-88
2022/04/11 14:45:44;;;;;;;8.52;1.80;;;24.20;87.00;;;;;;5003701;28;20021;-92
2022/04/11 14:48:10;;;;;;;4.13;1.42;;;23.50;85.90;;;;;;5004152;28;20050;-91
2022/04/11 14:50:41;;;;;;;5.32;1.45;;;22.30;89.70;;;;;;5004910;28;20613;-88
2022/04/11 14:53:10;;;;;;;5.75;1.67;;;22.00;90.30;;;;;;4973422;28;20022;-88
2022/04/11 14:55:41;;;;;;;10.57;1.73;;;21.90;90.60;;;;;;5002309;28;20018;-89
2022/04/11 14:58:12;;;;;;;3.85;1.33;;;22.40;90.00;;;;;;4992526;28;20108;-89
2022/04/11 15:00:38;;;;;;;5.07;1.83;;;22.20;90.80;;;;;;5003253;28;20081;-89
2022/04/11 15:03:05;;;;;;;5.35;1.48;;;22.30;91.30;;;;;;5010768;28;20022;-87
2022/04/11 15:05:30;;;;;;;10.85;1.55;;;22.30;89.40;;;;;;4994274;28;20022;-86
2022/04/11 15:07:56;;;;;;;6.68;1.83;;;22.20;90.70;;;;;;4992009;28;20040;-88
2022/04/11 15:10:22;;;;;;;5.28;1.75;;;21.90;90.90;;;;;;4998550;28;20037;-84
2022/04/11 15:12:52;;;;;;;3.30;1.30;;;21.40;90.70;;;;;;4998775;28;20041;-91
2022/04/11 15:15:19;;;;;;;3.80;1.60;;;21.60;91.90;;;;;;4991866;28;20070;-89
2022/04/11 15:17:55;;;;;;;4.45;1.45;;;21.20;92.40;;;;;;4990632;28;20094;-89
2022/04/11 15:20:23;;;;;;;7.45;1.88;;;21.00;91.90;;;;;;5016405;28;20045;-88
2022/04/11 15:22:52;;;;;;;7.95;1.63;;;20.60;92.30;;;;;;5003524;28;20034;-89
2022/04/11 15:25:18;;;;;;;4.75;1.65;;;20.80;93.10;;;;;;4996960;28;20389;-90
2022/04/11 15:27:44;;;;;;;4.18;1.48;;;20.30;93.90;;;;;;4981881;28;20038;-89
2022/04/11 15:30:10;;;;;;;10.63;1.80;;;20.20;94.30;;;;;;4980048;28;20026;-87
2022/04/11 15:32:36;;;;;;;4.85;1.85;;;20.50;94.70;;;;;;5013886;28;20559;-85
2022/04/11 15:35:03;;;;;;;8.13;1.70;;;20.50;94.50;;;;;;4993822;28;20022;-83
2022/04/11 15:37:31;;;;;;;10.85;1.85;;;20.90;93.50;;;;;;5006132;28;20030;-86
2022/04/11 15:40:02;;;;;;;5.20;1.30;;;20.60;93.00;;;;;;5010565;28;20034;-85
2022/04/11 15:42:28;;;;;;;8.55;1.90;;;20.00;94.40;;;;;;4986068;28;20086;-84
2022/04/11 15:44:54;;;;;;;6.75;1.80;;;20.40;95.00;;;;;;4997599;28;20089;-85
2022/04/11 15:47:20;;;;;;;9.45;1.83;;;20.00;95.70;;;;;;4983418;28;20050;-86
2022/04/11 15:49:51;;;;;;;10.40;1.63;;;20.50;95.60;;;;;;4995900;28;20086;-84
2022/04/11 15:52:17;;;;;;;6.07;1.48;;;20.50;95.20;;;;;;4999402;28;20030;-86
2022/04/11 15:54:43;;;;;;;14.05;2.30;;;20.90;94.40;;;;;;4995334;28;20029;-86
2022/04/11 15:57:09;;;;;;;7.85;2.20;;;21.60;94.30;;;;;;5000309;28;20034;-86
2022/04/11 15:59:34;;;;;;;3.80;1.75;;;21.50;92.70;;;;;;4996354;28;20053;-86
2022/04/11 16:02:00;;;;;;;13.68;1.83;;;21.10;92.90;;;;;;4987605;28;20030;-86
2022/04/11 16:04:27;;;;;;;6.40;1.50;;;20.60;94.00;;;;;;4991851;28;20080;-86
2022/04/11 16:06:52;;;;;;;5.63;1.77;;;20.30;95.50;;;;;;5001448;28;20031;-86
2022/04/11 16:09:18;;;;;;;3.88;1.70;;;20.80;94.50;;;;;;4989881;28;20028;-86
2022/04/11 16:11:44;;;;;;;9.23;1.83;;;21.00;93.90;;;;;;4998971;28;20092;-85
2022/04/11 16:14:10;;;;;;;10.63;1.90;;;20.40;95.20;;;;;;4991720;28;20033;-85
2022/04/11 16:16:36;;;;;;;7.25;1.58;;;20.70;94.90;;;;;;4986683;28;20029;-86
2022/04/11 16:19:01;;;;;;;4.50;1.85;;;20.80;94.40;;;;;;4985402;28;20080;-85
2022/04/11 16:21:27;;;;;;;8.02;1.88;;;20.60;95.50;;;;;;5001694;28;20023;-86
2022/04/11 16:23:53;;;;;;;7.45;2.30;;;20.40;95.80;;;;;;4981709;28;20552;-86
2022/04/11 16:26:19;;;;;;;11.93;1.70;;;20.00;96.50;;;;;;5004109;28;20075;-86
2022/04/11 16:28:46;;;;;;;7.85;1.80;;;19.10;97.90;;;;;;4980863;28;20062;-86
2022/04/11 16:31:13;;;;;;;4.82;1.70;;;18.60;98.80;;;;;;5001287;28;20477;-85
2022/04/11 16:33:39;;;;;;;7.35;2.08;;;18.60;99.70;;;;;;5008801;28;20030;-87
2022/04/11 16:36:06;;;;;;;10.20;2.15;;;18.30;99.80;;;;;;4992718;28;20176;-86
2022/04/11 16:38:33;;;;;;;8.18;1.90;;;18.10;99.90;;;;;;4996690;28;20034;-86
2022/04/11 16:40:59;;;;;;;5.40;1.85;;;17.90;99.90;;;;;;5005094;28;20054;-87
2022/04/11 16:43:25;;;;;;;8.40;1.90;;;17.50;99.90;;;;;;4999854;28;20405;-87
2022/04/11 16:45:51;;;;;;;8.55;1.75;;;17.30;99.90;;;;;;5006841;28;20022;-86
2022/04/11 16:48:16;;;;;;;6.05;1.73;;;16.80;99.90;;;;;;5008282;28;20037;-86
2022/04/11 16:50:43;;;;;;;4.93;1.67;;;16.30;99.90;;;;;;4995972;28;20018;-85
2022/04/11 16:53:09;;;;;;;7.15;1.92;;;15.80;99.90;;;;;;4992269;28;20072;-87
2022/04/11 16:55:35;;;;;;;3.85;1.70;;;15.40;99.90;;;;;;5008582;28;20428;-85
2022/04/11 16:58:01;;;;;;;8.57;1.92;;;15.20;99.90;;;;;;4983280;28;20481;-86
2022/04/11 17:00:27;;;;;;;7.50;2.13;;;14.90;99.90;;;;;;5003646;28;20042;-86
2022/04/11 17:02:55;;;;;;;7.57;2.17;;;14.70;99.90;;;;;;4987782;28;20037;-85
2022/04/11 17:05:20;;;;;;;5.88;2.33;;;14.30;99.90;;;;;;4997288;28;20022;-85
2022/04/11 17:07:46;;;;;;;11.73;2.25;;;14.00;99.90;;;;;;5010288;28;20077;-84
2022/04/11 17:10:12;;;;;;;4.50;1.70;;;13.80;99.90;;;;;;5011297;28;20456;-86
2022/04/11 17:12:38;;;;;;;12.25;2.42;;;13.60;99.90;;;;;;4996088;28;20040;-87
2022/04/11 17:15:05;;;;;;;6.97;1.90;;;13.40;99.90;;;;;;5003631;28;20049;-85
2022/04/11 17:20:16;;;;;;;9.77;1.90;;;13.20;99.90;;;;;;5001265;28;20059;-87
2022/04/11 17:22:41;;;;;;;9.07;2.33;;;13.10;99.90;;;;;;5012632;28;20030;-87
2022/04/11 17:25:07;;;;;;;6.15;2.35;;;12.90;99.90;;;;;;4979020;28;20532;-87
2022/04/11 17:27:33;;;;;;;8.77;2.72;;;12.80;99.90;;;;;;4991147;28;20128;-87
2022/04/11 17:29:59;;;;;;;6.55;1.92;;;12.80;99.90;;;;;;4998977;28;20110;-88
2022/04/11 17:32:26;;;;;;;9.10;2.15;;;12.70;99.90;;;;;;5003062;28;20033;-86
2022/04/11 17:34:52;;;;;;;7.03;2.00;;;12.60;99.90;;;;;;5000449;28;20026;-87
2022/04/11 17:37:17;;;;;;;8.93;2.25;;;12.50;99.90;;;;;;5010391;28;20117;-86
2022/04/11 17:39:43;;;;;;;8.93;2.05;;;12.50;99.90;;;;;;4996938;28;20030;-87
2022/04/11 17:42:09;;;;;;;5.18;1.90;;;12.30;99.90;;;;;;4991942;28;20037;-87
2022/04/11 17:44:35;;;;;;;6.30;1.92;;;12.20;99.90;;;;;;4981163;28;20038;-88
2022/04/11 17:47:01;;;;;;;8.40;2.58;;;12.10;99.90;;;;;;4992778;28;20037;-88
2022/04/11 17:49:27;;;;;;;7.47;2.20;;;11.90;99.90;;;;;;4981689;28;20027;-87
2022/04/11 17:51:53;;;;;;;6.55;2.20;;;11.80;99.90;;;;;;4984986;28;20022;-88
2022/04/11 17:54:21;;;;;;;7.65;2.40;;;11.70;99.90;;;;;;5012817;28;20030;-87
2022/04/11 17:56:49;;;;;;;9.38;1.90;;;11.70;99.90;;;;;;5010080;28;20026;-86
2022/04/11 17:59:16;;;;;;;10.38;2.20;;;11.60;99.90;;;;;;4990775;28;20555;-87